Time;durP1;ratioP1;P1;durP2;ratioP2;P2;SDS_P1;SDS_P2;PMS_P1;PMS_P2;Temp;Humidity;BMP_temperature;BMP_pressure;BME280_temperature;BME280_humidity;BME280_pressure;Samples;Min_cycle;Max_cycle;Signal;HPM_P1;HPM_P2
2021/01/31 00:00:23;;;;;;;1.77;1.67;;;;;;;;;;5093661;28;20215;-73
2021/01/31 00:02:49;;;;;;;1.60;1.25;;;;;;;;;;5093452;28;20189;-74
2021/01/31 00:05:15;;;;;;;2.65;2.35;;;;;;;;;;5093779;28;20189;-75
2021/01/31 00:07:41;;;;;;;8.93;2.55;;;;;;;;;;5092955;28;20200;-73
2021/01/31 00:10:11;;;;;;;6.95;2.75;;;;;;;;;;5093078;28;20193;-74
2021/01/31 00:12:37;;;;;;;1.80;1.70;;;;;;;;;;5092656;28;20210;-74
2021/01/31 00:15:03;;;;;;;2.63;2.20;;;;;;;;;;5093320;28;20269;-74
2021/01/31 00:17:29;;;;;;;2.10;1.95;;;;;;;;;;5093394;28;20532;-74
2021/01/31 00:19:55;;;;;;;4.45;2.25;;;;;;;;;;5093121;28;20208;-75
2021/01/31 00:22:21;;;;;;;2.20;2.00;;;;;;;;;;5093225;28;20553;-74
2021/01/31 00:24:53;;;;;;;2.80;2.40;;;;;;;;;;5093101;28;20186;-75
2021/01/31 00:27:20;;;;;;;3.65;2.65;;;;;;;;;;5092340;28;20521;-74
2021/01/31 00:29:46;;;;;;;3.03;2.33;;;;;;;;;;5092978;28;20200;-75
2021/01/31 00:32:12;;;;;;;3.55;2.38;;;;;;;;;;5093168;28;20260;-74
2021/01/31 00:34:38;;;;;;;4.15;2.25;;;;;;;;;;5092685;28;20202;-75
2021/01/31 00:37:04;;;;;;;2.83;2.38;;;;;;;;;;5092916;28;20188;-74
2021/01/31 00:39:30;;;;;;;2.33;2.13;;;;;;;;;;5092878;28;20212;-74
2021/01/31 00:41:56;;;;;;;2.35;2.05;;;;;;;;;;5092782;28;20337;-74
2021/01/31 00:44:23;;;;;;;2.90;2.60;;;;;;;;;;5092860;28;20204;-75
2021/01/31 00:46:49;;;;;;;5.32;3.22;;;;;;;;;;5092414;28;20197;-74
2021/01/31 00:49:15;;;;;;;3.67;2.75;;;;;;;;;;5092567;28;20221;-74
2021/01/31 00:51:41;;;;;;;4.00;2.88;;;;;;;;;;5092564;28;20650;-75
2021/01/31 00:54:07;;;;;;;2.85;2.03;;;;;;;;;;5092759;28;20200;-74
2021/01/31 00:56:33;;;;;;;2.67;2.10;;;;;;;;;;5092736;28;20193;-74
2021/01/31 00:59:00;;;;;;;2.90;2.65;;;;;;;;;;5092236;28;20676;-74
2021/01/31 01:01:26;;;;;;;4.70;2.63;;;;;;;;;;5092547;28;20280;-74
2021/01/31 01:03:52;;;;;;;3.35;3.05;;;;;;;;;;5092302;28;20219;-74
2021/01/31 01:06:18;;;;;;;4.25;2.80;;;;;;;;;;5092580;28;20618;-73
2021/01/31 01:08:45;;;;;;;2.92;2.60;;;;;;;;;;5092255;28;20200;-74
2021/01/31 01:11:10;;;;;;;2.88;2.65;;;;;;;;;;5092327;28;20200;-74
2021/01/31 01:13:36;;;;;;;3.60;2.50;;;;;;;;;;5093137;28;20626;-74
2021/01/31 01:16:03;;;;;;;4.13;3.35;;;;;;;;;;5092484;28;20438;-74
2021/01/31 01:18:31;;;;;;;3.42;2.40;;;;;;;;;;5092396;28;20338;-74
2021/01/31 01:20:57;;;;;;;2.60;2.40;;;;;;;;;;5092407;28;20247;-75
2021/01/31 01:23:23;;;;;;;3.40;2.47;;;;;;;;;;5092723;28;20185;-74
2021/01/31 01:25:49;;;;;;;2.55;2.22;;;;;;;;;;5092084;28;20620;-75
2021/01/31 01:28:15;;;;;;;4.63;3.08;;;;;;;;;;5092554;28;20632;-74
2021/01/31 01:30:41;;;;;;;2.47;2.38;;;;;;;;;;5091994;28;20276;-74
2021/01/31 01:33:07;;;;;;;2.53;2.22;;;;;;;;;;5092256;28;20282;-74
2021/01/31 01:35:34;;;;;;;2.60;2.28;;;;;;;;;;5092458;28;20633;-74
2021/01/31 01:38:01;;;;;;;3.70;2.70;;;;;;;;;;5092140;28;20200;-75
2021/01/31 01:40:31;;;;;;;3.42;2.38;;;;;;;;;;5094576;28;20188;-74
2021/01/31 01:42:57;;;;;;;2.40;1.92;;;;;;;;;;5095641;28;20196;-74
2021/01/31 01:45:23;;;;;;;3.20;2.58;;;;;;;;;;5096113;28;20612;-75
2021/01/31 01:47:50;;;;;;;3.90;1.83;;;;;;;;;;5096370;28;20184;-74
2021/01/31 01:50:27;;;;;;;2.85;2.42;;;;;;;;;;5096101;28;20196;-74
2021/01/31 01:52:56;;;;;;;3.13;2.50;;;;;;;;;;5096129;28;20180;-74
2021/01/31 01:55:23;;;;;;;4.03;2.95;;;;;;;;;;5096097;28;20205;-74
2021/01/31 01:57:50;;;;;;;3.75;2.92;;;;;;;;;;5096042;28;20616;-74
2021/01/31 02:00:17;;;;;;;3.88;2.70;;;;;;;;;;5095664;28;20230;-74
2021/01/31 02:02:45;;;;;;;2.58;2.38;;;;;;;;;;5095740;28;20290;-75
2021/01/31 02:05:12;;;;;;;4.07;2.65;;;;;;;;;;5095831;28;20211;-74
2021/01/31 02:07:38;;;;;;;3.60;3.00;;;;;;;;;;5095829;28;20564;-74
2021/01/31 02:10:07;;;;;;;4.93;3.27;;;;;;;;;;5096080;28;20196;-74
2021/01/31 02:12:33;;;;;;;5.85;3.17;;;;;;;;;;5095749;28;20964;-74
2021/01/31 02:15:00;;;;;;;4.47;3.90;;;;;;;;;;5096034;28;20202;-74
2021/01/31 02:17:29;;;;;;;5.20;3.47;;;;;;;;;;5096144;28;20730;-74
2021/01/31 02:20:16;;;;;;;3.38;2.85;;;;;;;;;;5096226;28;20204;-74
2021/01/31 02:22:52;;;;;;;3.58;2.80;;;;;;;;;;5095551;28;20223;-73
2021/01/31 02:25:37;;;;;;;4.53;4.13;;;;;;;;;;5095301;28;20270;-74
2021/01/31 02:28:23;;;;;;;4.80;2.90;;;;;;;;;;5095638;28;20328;-73
2021/01/31 02:30:54;;;;;;;3.95;3.55;;;;;;;;;;5095475;28;20184;-75
2021/01/31 02:33:39;;;;;;;4.22;2.75;;;;;;;;;;5095505;28;20685;-75
2021/01/31 02:36:07;;;;;;;4.43;2.67;;;;;;;;;;5095929;28;20298;-74
2021/01/31 02:38:37;;;;;;;3.50;2.95;;;;;;;;;;5095044;28;20204;-73
2021/01/31 02:41:04;;;;;;;4.03;3.05;;;;;;;;;;5095084;28;20203;-75
2021/01/31 02:43:35;;;;;;;6.65;3.75;;;;;;;;;;5095354;28;20244;-75
2021/01/31 02:46:04;;;;;;;5.38;3.08;;;;;;;;;;5095091;28;20188;-73
2021/01/31 02:48:34;;;;;;;3.42;3.00;;;;;;;;;;5095286;28;20230;-74
2021/01/31 02:51:03;;;;;;;5.38;3.92;;;;;;;;;;5094090;28;20229;-74
2021/01/31 02:53:32;;;;;;;6.03;3.20;;;;;;;;;;5094759;28;20272;-74
2021/01/31 02:56:01;;;;;;;5.10;2.65;;;;;;;;;;5094806;28;20231;-74
2021/01/31 02:58:29;;;;;;;4.38;3.25;;;;;;;;;;5094737;28;20225;-73
2021/01/31 03:00:59;;;;;;;5.03;4.20;;;;;;;;;;5094509;28;20188;-75
2021/01/31 03:03:28;;;;;;;3.50;2.78;;;;;;;;;;5094915;28;20270;-74
2021/01/31 03:05:56;;;;;;;5.20;4.43;;;;;;;;;;5094315;28;20267;-74
2021/01/31 03:08:25;;;;;;;9.88;4.50;;;;;;;;;;5094336;28;20634;-74
2021/01/31 03:10:55;;;;;;;5.07;3.45;;;;;;;;;;5094221;28;20204;-74
2021/01/31 03:13:23;;;;;;;8.52;4.20;;;;;;;;;;5094083;28;20204;-74
2021/01/31 03:15:52;;;;;;;6.40;3.58;;;;;;;;;;5094187;28;20267;-74
2021/01/31 03:18:21;;;;;;;8.20;4.25;;;;;;;;;;5093571;28;20310;-73
2021/01/31 03:20:51;;;;;;;6.18;3.50;;;;;;;;;;5094625;28;20196;-74
2021/01/31 03:23:19;;;;;;;8.43;3.88;;;;;;;;;;5094242;28;20606;-74
2021/01/31 03:25:50;;;;;;;5.20;3.50;;;;;;;;;;5094139;28;20529;-74
2021/01/31 03:28:16;;;;;;;4.97;2.97;;;;;;;;;;5093491;28;20180;-74
2021/01/31 03:30:42;;;;;;;6.57;3.40;;;;;;;;;;5094228;28;20603;-73
2021/01/31 03:33:10;;;;;;;6.07;2.95;;;;;;;;;;5093527;28;20269;-74
2021/01/31 03:35:38;;;;;;;6.13;3.67;;;;;;;;;;5093593;28;20223;-74
2021/01/31 03:38:08;;;;;;;5.63;3.65;;;;;;;;;;5093824;28;20643;-74
2021/01/31 03:40:35;;;;;;;6.30;3.60;;;;;;;;;;5093387;28;20200;-73
2021/01/31 03:43:02;;;;;;;5.57;3.45;;;;;;;;;;5093500;28;20200;-74
2021/01/31 03:45:31;;;;;;;5.30;4.45;;;;;;;;;;5093514;28;20618;-74
2021/01/31 03:48:00;;;;;;;6.40;3.95;;;;;;;;;;5093446;28;20250;-73
2021/01/31 03:50:26;;;;;;;6.75;4.05;;;;;;;;;;5093256;28;20263;-74
2021/01/31 03:52:52;;;;;;;10.00;4.07;;;;;;;;;;5092854;28;20236;-73
2021/01/31 03:55:18;;;;;;;8.67;4.50;;;;;;;;;;5093547;28;20234;-73
2021/01/31 03:57:46;;;;;;;4.82;3.72;;;;;;;;;;5092843;28;20445;-74
2021/01/31 04:00:16;;;;;;;5.78;3.83;;;;;;;;;;5093715;28;20667;-74
2021/01/31 04:02:44;;;;;;;4.35;3.92;;;;;;;;;;5092186;28;20274;-75
2021/01/31 04:05:11;;;;;;;6.10;3.45;;;;;;;;;;5085350;28;20199;-74
2021/01/31 04:07:40;;;;;;;6.07;3.92;;;;;;;;;;5092774;28;20282;-75
2021/01/31 04:10:07;;;;;;;6.72;3.95;;;;;;;;;;5093219;28;20608;-74
2021/01/31 04:12:36;;;;;;;7.22;4.70;;;;;;;;;;5092817;28;20188;-74
2021/01/31 04:15:05;;;;;;;5.88;4.25;;;;;;;;;;5092809;28;20622;-74
2021/01/31 04:17:32;;;;;;;8.50;4.25;;;;;;;;;;5092556;28;20224;-75
2021/01/31 04:19:57;;;;;;;6.78;3.88;;;;;;;;;;5092987;28;20204;-74
2021/01/31 04:22:23;;;;;;;7.27;4.23;;;;;;;;;;5093088;28;20593;-75
2021/01/31 04:24:49;;;;;;;5.37;3.30;;;;;;;;;;5092504;28;20446;-74
2021/01/31 04:27:15;;;;;;;5.57;3.80;;;;;;;;;;5092951;28;20917;-74
2021/01/31 04:29:41;;;;;;;7.80;3.88;;;;;;;;;;5092770;28;20509;-74
2021/01/31 04:32:07;;;;;;;8.93;4.40;;;;;;;;;;5092091;28;20188;-74
2021/01/31 04:34:34;;;;;;;10.10;5.75;;;;;;;;;;5092433;28;20515;-74
2021/01/31 04:37:00;;;;;;;4.50;3.20;;;;;;;;;;5092650;28;20271;-75
2021/01/31 04:39:26;;;;;;;5.57;4.15;;;;;;;;;;5092347;28;20216;-74
2021/01/31 04:41:52;;;;;;;9.65;5.22;;;;;;;;;;5092711;28;20180;-73
2021/01/31 04:44:20;;;;;;;5.35;4.25;;;;;;;;;;5092489;28;20192;-74
2021/01/31 04:46:47;;;;;;;6.22;3.70;;;;;;;;;;5092078;28;20279;-74
2021/01/31 04:49:30;;;;;;;7.40;3.40;;;;;;;;;;5092898;28;20234;-70
2021/01/31 04:52:11;;;;;;;6.90;4.30;;;;;;;;;;5072775;28;20236;-71
2021/01/31 04:54:46;;;;;;;8.23;4.18;;;;;;;;;;5092741;28;20207;-70
2021/01/31 04:57:13;;;;;;;6.72;4.80;;;;;;;;;;5093151;28;20685;-71
2021/01/31 04:59:41;;;;;;;8.15;4.70;;;;;;;;;;5092574;28;20211;-70
2021/01/31 05:02:10;;;;;;;5.97;4.57;;;;;;;;;;5092616;28;20184;-72
2021/01/31 05:04:46;;;;;;;11.00;5.10;;;;;;;;;;5092854;28;20282;-71
2021/01/31 05:07:13;;;;;;;6.50;4.20;;;;;;;;;;5092767;28;20184;-69
2021/01/31 05:09:39;;;;;;;7.45;5.63;;;;;;;;;;5092679;28;20180;-70
2021/01/31 05:12:12;;;;;;;4.73;3.30;;;;;;;;;;5092544;28;20214;-71
2021/01/31 05:14:56;;;;;;;7.50;4.20;;;;;;;;;;5092606;28;20446;-70
2021/01/31 05:17:22;;;;;;;8.02;3.13;;;;;;;;;;5082294;28;20215;-71
2021/01/31 05:19:48;;;;;;;6.03;4.32;;;;;;;;;;5092497;28;20208;-71
2021/01/31 05:22:17;;;;;;;6.80;3.90;;;;;;;;;;5092531;28;20207;-71
2021/01/31 05:24:44;;;;;;;8.88;4.72;;;;;;;;;;5092673;28;20618;-71
2021/01/31 05:27:10;;;;;;;7.07;5.13;;;;;;;;;;5092291;28;20244;-71
2021/01/31 05:29:37;;;;;;;7.85;4.35;;;;;;;;;;5092275;28;20188;-71
2021/01/31 05:32:05;;;;;;;5.90;3.83;;;;;;;;;;5092315;28;20266;-71
2021/01/31 05:34:32;;;;;;;8.80;4.50;;;;;;;;;;5092096;28;20306;-69
2021/01/31 05:37:01;;;;;;;10.43;4.95;;;;;;;;;;5092472;28;20184;-70
2021/01/31 05:39:48;;;;;;;6.22;4.38;;;;;;;;;;5092745;28;20280;-70
2021/01/31 05:42:17;;;;;;;5.50;3.80;;;;;;;;;;5088924;28;20276;-70
2021/01/31 05:44:43;;;;;;;9.40;4.80;;;;;;;;;;5092380;28;20223;-71
2021/01/31 05:47:16;;;;;;;6.20;4.40;;;;;;;;;;5092593;28;20215;-70
2021/01/31 05:49:43;;;;;;;5.22;3.67;;;;;;;;;;5092331;28;20267;-70
2021/01/31 05:52:13;;;;;;;4.80;3.35;;;;;;;;;;5092472;28;20196;-72
2021/01/31 05:54:39;;;;;;;8.95;5.63;;;;;;;;;;5091998;28;20200;-71
2021/01/31 05:57:20;;;;;;;6.78;4.05;;;;;;;;;;5091868;28;20184;-70
2021/01/31 05:59:46;;;;;;;4.45;3.90;;;;;;;;;;5092169;28;20235;-70
2021/01/31 06:02:19;;;;;;;7.53;5.03;;;;;;;;;;5092629;28;20187;-70
2021/01/31 06:04:45;;;;;;;7.38;4.25;;;;;;;;;;5091625;28;20188;-70
2021/01/31 06:07:13;;;;;;;10.73;5.07;;;;;;;;;;5092180;28;20236;-70
2021/01/31 06:09:40;;;;;;;9.25;4.70;;;;;;;;;;5092149;28;20442;-71
2021/01/31 06:12:08;;;;;;;7.45;3.60;;;;;;;;;;5091731;28;20220;-70
2021/01/31 06:14:34;;;;;;;6.90;3.90;;;;;;;;;;5092044;28;20283;-70
2021/01/31 06:17:04;;;;;;;5.22;4.35;;;;;;;;;;5092040;28;20180;-71
2021/01/31 06:19:31;;;;;;;7.65;3.83;;;;;;;;;;5091995;28;20685;-70
2021/01/31 06:21:57;;;;;;;5.78;4.53;;;;;;;;;;5092500;28;20309;-71
2021/01/31 06:24:25;;;;;;;5.10;3.72;;;;;;;;;;5092029;28;20210;-71
2021/01/31 06:26:51;;;;;;;7.07;4.10;;;;;;;;;;5094925;28;20282;-71
2021/01/31 06:29:20;;;;;;;8.65;4.68;;;;;;;;;;5096055;28;20541;-71
2021/01/31 06:31:49;;;;;;;6.93;4.90;;;;;;;;;;5095419;28;20204;-71
2021/01/31 06:34:18;;;;;;;7.60;4.55;;;;;;;;;;5095962;28;20275;-70
2021/01/31 06:36:50;;;;;;;7.20;4.78;;;;;;;;;;5095426;28;20187;-69
2021/01/31 06:39:27;;;;;;;8.02;4.72;;;;;;;;;;5095942;28;20566;-71
2021/01/31 06:42:03;;;;;;;9.80;3.88;;;;;;;;;;5095581;28;20618;-70
2021/01/31 06:44:36;;;;;;;8.43;4.43;;;;;;;;;;5095204;28;20271;-71
2021/01/31 06:47:09;;;;;;;5.50;4.43;;;;;;;;;;5095884;28;20184;-71
2021/01/31 06:49:37;;;;;;;13.45;5.88;;;;;;;;;;5095499;28;20188;-72
2021/01/31 06:52:09;;;;;;;9.27;6.15;;;;;;;;;;5095495;28;20200;-70
2021/01/31 06:54:43;;;;;;;8.48;4.18;;;;;;;;;;5095175;28;20280;-70
2021/01/31 06:57:28;;;;;;;8.95;4.88;;;;;;;;;;5095083;28;20206;-71
2021/01/31 06:59:59;;;;;;;5.68;4.18;;;;;;;;;;5095568;28;20247;-71
2021/01/31 07:02:33;;;;;;;9.13;5.93;;;;;;;;;;5095346;28;20206;-70
2021/01/31 07:05:09;;;;;;;10.35;4.72;;;;;;;;;;5095592;28;20610;-70
2021/01/31 07:08:08;;;;;;;7.28;4.78;;;;;;;;;;5095224;28;20684;-71
2021/01/31 07:10:49;;;;;;;6.70;4.55;;;;;;;;;;5095417;28;20208;-71
2021/01/31 07:13:20;;;;;;;10.82;4.38;;;;;;;;;;5095200;28;20184;-72
2021/01/31 07:15:50;;;;;;;7.35;4.85;;;;;;;;;;5095042;28;20199;-71
2021/01/31 07:18:17;;;;;;;10.52;6.05;;;;;;;;;;5094902;28;20603;-71
2021/01/31 07:20:46;;;;;;;11.13;5.95;;;;;;;;;;5094936;28;20200;-71
2021/01/31 07:23:13;;;;;;;8.40;3.75;;;;;;;;;;5095184;28;20648;-71
2021/01/31 07:25:40;;;;;;;12.48;7.47;;;;;;;;;;5094904;28;20275;-71
2021/01/31 07:28:08;;;;;;;7.95;4.78;;;;;;;;;;5094901;28;20259;-71
2021/01/31 07:30:37;;;;;;;8.68;5.28;;;;;;;;;;5094810;28;20184;-70
2021/01/31 07:33:14;;;;;;;11.68;4.45;;;;;;;;;;5094808;28;20541;-70
2021/01/31 07:35:53;;;;;;;8.15;4.65;;;;;;;;;;5094818;28;21030;-71
2021/01/31 07:38:20;;;;;;;8.55;4.65;;;;;;;;;;5094529;28;20629;-71
2021/01/31 07:40:47;;;;;;;9.68;4.95;;;;;;;;;;5094223;28;20744;-70
2021/01/31 07:43:14;;;;;;;10.00;6.13;;;;;;;;;;5094326;28;20186;-71
2021/01/31 07:45:40;;;;;;;10.75;4.38;;;;;;;;;;5094463;28;20261;-71
2021/01/31 07:48:25;;;;;;;8.73;5.60;;;;;;;;;;5094227;28;20278;-71
2021/01/31 07:50:52;;;;;;;5.13;4.05;;;;;;;;;;5093981;28;20192;-71
2021/01/31 07:53:26;;;;;;;7.90;5.35;;;;;;;;;;5094066;28;20188;-71
2021/01/31 07:55:52;;;;;;;8.30;4.95;;;;;;;;;;5094181;28;20661;-71
2021/01/31 07:58:34;;;;;;;12.68;6.18;;;;;;;;;;5094255;28;20653;-71
2021/01/31 08:01:00;;;;;;;10.80;5.07;;;;;;;;;;5094323;28;20729;-71
2021/01/31 08:03:31;;;;;;;10.95;5.82;;;;;;;;;;5093824;28;20229;-71
2021/01/31 08:05:59;;;;;;;8.20;4.57;;;;;;;;;;5093998;28;20685;-72
2021/01/31 08:08:42;;;;;;;9.32;5.22;;;;;;;;;;5093525;28;20242;-72
2021/01/31 08:11:09;;;;;;;11.75;5.35;;;;;;;;;;5093817;28;20206;-71
2021/01/31 08:13:39;;;;;;;10.63;4.45;;;;;;;;;;5093129;28;20275;-71
2021/01/31 08:16:24;;;;;;;9.15;5.22;;;;;;;;;;5093000;28;20275;-71
2021/01/31 08:19:07;;;;;;;7.55;5.68;;;;;;;;;;5093513;28;20645;-70
2021/01/31 08:21:47;;;;;;;13.00;6.43;;;;;;;;;;5082449;28;20595;-71
2021/01/31 08:24:13;;;;;;;10.27;6.20;;;;;;;;;;5093532;28;20457;-70
2021/01/31 08:26:42;;;;;;;8.48;5.57;;;;;;;;;;5093598;28;20287;-70
2021/01/31 08:29:18;;;;;;;9.18;6.65;;;;;;;;;;5093798;28;20615;-71
2021/01/31 08:32:00;;;;;;;10.70;4.65;;;;;;;;;;5093311;28;20203;-70
2021/01/31 08:34:26;;;;;;;7.75;4.50;;;;;;;;;;5093228;28;20203;-72
2021/01/31 08:36:54;;;;;;;10.25;5.05;;;;;;;;;;5093345;28;20207;-73
2021/01/31 08:39:28;;;;;;;9.90;5.30;;;;;;;;;;5093393;28;20734;-73
2021/01/31 08:42:02;;;;;;;9.55;4.95;;;;;;;;;;5093289;28;20287;-71
2021/01/31 08:44:39;;;;;;;11.48;4.95;;;;;;;;;;5093751;28;20614;-72
2021/01/31 08:47:05;;;;;;;9.35;5.45;;;;;;;;;;5093829;28;20294;-72
2021/01/31 08:49:31;;;;;;;9.70;5.25;;;;;;;;;;5093244;28;20236;-71
2021/01/31 08:51:58;;;;;;;12.60;6.13;;;;;;;;;;5092895;28;20188;-71
2021/01/31 08:54:25;;;;;;;7.85;5.85;;;;;;;;;;5093221;28;20471;-72
2021/01/31 08:56:52;;;;;;;7.50;4.72;;;;;;;;;;5092544;28;20237;-73
2021/01/31 08:59:20;;;;;;;7.80;5.43;;;;;;;;;;5092762;28;20255;-72
2021/01/31 09:01:55;;;;;;;9.07;5.07;;;;;;;;;;5093307;28;20361;-72
2021/01/31 09:04:21;;;;;;;7.15;3.95;;;;;;;;;;5093536;28;20272;-71
2021/01/31 09:06:48;;;;;;;11.23;5.93;;;;;;;;;;5092989;28;20249;-70
2021/01/31 09:09:18;;;;;;;12.90;5.25;;;;;;;;;;5092546;28;20272;-72
2021/01/31 09:11:44;;;;;;;6.00;4.93;;;;;;;;;;5092775;28;20207;-71
2021/01/31 09:14:12;;;;;;;8.63;6.10;;;;;;;;;;5092794;28;20275;-71
2021/01/31 09:16:41;;;;;;;10.60;5.30;;;;;;;;;;5092793;28;20552;-70
2021/01/31 09:19:10;;;;;;;11.35;5.88;;;;;;;;;;5092665;28;20327;-70
2021/01/31 09:21:36;;;;;;;11.68;6.00;;;;;;;;;;5093123;28;20205;-71
2021/01/31 09:24:04;;;;;;;8.70;5.22;;;;;;;;;;5092281;28;20315;-69
2021/01/31 09:26:32;;;;;;;12.63;6.80;;;;;;;;;;5092247;28;20581;-71
2021/01/31 09:28:59;;;;;;;11.90;6.32;;;;;;;;;;5092840;28;20513;-70
2021/01/31 09:31:30;;;;;;;13.00;5.40;;;;;;;;;;5092865;28;20286;-71
2021/01/31 09:33:58;;;;;;;10.35;6.65;;;;;;;;;;5093521;28;20225;-70
2021/01/31 09:36:28;;;;;;;5.70;4.90;;;;;;;;;;5092814;28;20235;-71
2021/01/31 09:38:56;;;;;;;10.60;5.40;;;;;;;;;;5092783;28;20188;-72
2021/01/31 09:41:23;;;;;;;8.98;5.30;;;;;;;;;;5092664;28;20196;-71
2021/01/31 09:43:52;;;;;;;13.07;6.78;;;;;;;;;;5091830;28;20909;-70
2021/01/31 09:46:21;;;;;;;12.52;7.10;;;;;;;;;;5092705;28;20280;-71
2021/01/31 09:48:47;;;;;;;13.20;6.22;;;;;;;;;;5092500;28;20204;-70
2021/01/31 09:51:22;;;;;;;14.70;4.85;;;;;;;;;;5092867;28;20191;-71
2021/01/31 09:53:48;;;;;;;10.77;6.00;;;;;;;;;;5092659;28;20237;-71
2021/01/31 09:56:29;;;;;;;11.43;5.47;;;;;;;;;;5092615;28;20196;-72
2021/01/31 09:58:56;;;;;;;10.93;5.75;;;;;;;;;;5092096;28;20635;-71
2021/01/31 10:01:23;;;;;;;10.48;5.35;;;;;;;;;;5094667;28;20214;-70
2021/01/31 10:03:55;;;;;;;7.13;4.20;;;;;;;;;;5095652;28;20204;-69
2021/01/31 10:06:21;;;;;;;9.95;5.25;;;;;;;;;;5096270;28;20275;-70
2021/01/31 10:08:53;;;;;;;8.43;5.43;;;;;;;;;;5096365;28;20195;-71
2021/01/31 10:11:41;;;;;;;8.65;5.40;;;;;;;;;;5096175;28;20486;-71
2021/01/31 10:14:09;;;;;;;8.25;4.57;;;;;;;;;;5091526;28;20196;-69
2021/01/31 10:16:36;;;;;;;8.85;5.10;;;;;;;;;;5095969;28;20611;-71
2021/01/31 10:19:14;;;;;;;5.47;3.97;;;;;;;;;;5095943;28;20585;-70
2021/01/31 10:21:42;;;;;;;11.27;4.97;;;;;;;;;;5096038;28;20233;-71
2021/01/31 10:24:18;;;;;;;7.13;4.80;;;;;;;;;;5096160;28;20202;-71
2021/01/31 10:26:44;;;;;;;10.43;4.85;;;;;;;;;;5096309;28;20200;-71
2021/01/31 10:29:19;;;;;;;7.18;5.00;;;;;;;;;;5096225;28;20181;-70
2021/01/31 10:31:45;;;;;;;10.65;5.38;;;;;;;;;;5096189;28;20549;-71
2021/01/31 10:34:11;;;;;;;9.73;5.70;;;;;;;;;;5095947;28;20701;-72
2021/01/31 10:36:40;;;;;;;10.25;6.00;;;;;;;;;;5096271;28;20227;-70
2021/01/31 10:39:23;;;;;;;9.07;5.57;;;;;;;;;;5095249;28;20203;-70
2021/01/31 10:41:49;;;;;;;8.05;5.15;;;;;;;;;;5096475;28;20184;-70
2021/01/31 10:44:22;;;;;;;9.07;5.85;;;;;;;;;;5096404;28;20211;-71
2021/01/31 10:46:49;;;;;;;10.27;6.07;;;;;;;;;;5096249;28;20614;-71
2021/01/31 10:49:15;;;;;;;9.35;5.15;;;;;;;;;;5096074;28;20192;-70
2021/01/31 10:51:43;;;;;;;14.90;6.60;;;;;;;;;;5096121;28;20245;-71
2021/01/31 10:54:09;;;;;;;10.20;6.32;;;;;;;;;;5095962;28;20624;-69
2021/01/31 10:56:35;;;;;;;9.77;5.63;;;;;;;;;;5096082;28;20999;-71
2021/01/31 10:59:01;;;;;;;10.45;5.65;;;;;;;;;;5095508;28;20207;-71
2021/01/31 11:01:28;;;;;;;7.73;6.20;;;;;;;;;;5095939;28;20200;-71
2021/01/31 11:03:54;;;;;;;10.60;5.32;;;;;;;;;;5095643;28;20444;-72
2021/01/31 11:06:21;;;;;;;13.35;6.75;;;;;;;;;;5096199;28;20592;-72
2021/01/31 11:08:47;;;;;;;10.98;6.43;;;;;;;;;;5095881;28;20200;-69
2021/01/31 11:11:13;;;;;;;14.80;8.18;;;;;;;;;;5095459;28;20268;-71
2021/01/31 11:13:39;;;;;;;8.45;6.22;;;;;;;;;;5095732;28;20203;-71
2021/01/31 11:16:05;;;;;;;14.23;6.40;;;;;;;;;;5095261;28;20233;-71
2021/01/31 11:18:32;;;;;;;11.27;6.60;;;;;;;;;;5094780;28;20735;-71
2021/01/31 11:20:59;;;;;;;10.77;5.45;;;;;;;;;;5094567;28;20225;-71
2021/01/31 11:23:25;;;;;;;11.40;6.10;;;;;;;;;;5095030;28;20197;-71
2021/01/31 11:25:51;;;;;;;12.65;5.90;;;;;;;;;;5094824;28;20197;-70
2021/01/31 11:28:17;;;;;;;11.00;6.75;;;;;;;;;;5094511;28;20253;-73
2021/01/31 11:30:43;;;;;;;17.90;7.40;;;;;;;;;;5094756;28;20601;-71
2021/01/31 11:33:09;;;;;;;13.30;7.25;;;;;;;;;;5094674;28;20205;-71
2021/01/31 11:35:37;;;;;;;14.15;6.78;;;;;;;;;;5094636;28;20204;-72
2021/01/31 11:38:04;;;;;;;12.35;6.75;;;;;;;;;;5094861;28;20193;-71
2021/01/31 11:40:30;;;;;;;10.35;5.30;;;;;;;;;;5094640;28;20207;-71
2021/01/31 11:42:56;;;;;;;17.30;5.65;;;;;;;;;;5094997;28;20653;-72
2021/01/31 11:45:23;;;;;;;11.90;5.18;;;;;;;;;;5094930;28;20204;-72
2021/01/31 11:47:49;;;;;;;12.57;6.25;;;;;;;;;;5094956;28;20282;-72
2021/01/31 11:50:17;;;;;;;16.90;8.18;;;;;;;;;;5094688;28;20224;-72
2021/01/31 11:52:45;;;;;;;13.43;6.63;;;;;;;;;;5095236;28;20196;-69
2021/01/31 11:55:12;;;;;;;11.38;6.50;;;;;;;;;;5094716;28;20238;-71
2021/01/31 11:57:38;;;;;;;17.10;7.00;;;;;;;;;;5094662;28;20196;-71
2021/01/31 12:00:06;;;;;;;11.95;5.85;;;;;;;;;;5094475;28;20216;-71
2021/01/31 12:02:33;;;;;;;11.27;6.30;;;;;;;;;;5094364;28;20200;-71
2021/01/31 12:05:00;;;;;;;8.68;5.50;;;;;;;;;;5094641;28;20225;-71
2021/01/31 12:07:26;;;;;;;16.42;7.63;;;;;;;;;;5094456;28;20220;-71
2021/01/31 12:09:53;;;;;;;12.80;6.97;;;;;;;;;;5094178;28;20216;-70
2021/01/31 12:12:19;;;;;;;10.25;5.88;;;;;;;;;;5094538;28;20183;-71
2021/01/31 12:14:45;;;;;;;8.73;6.13;;;;;;;;;;5094293;28;20326;-70
2021/01/31 12:17:12;;;;;;;11.88;5.70;;;;;;;;;;5094111;28;20252;-71
2021/01/31 12:19:38;;;;;;;13.57;6.47;;;;;;;;;;5094057;28;20212;-70
2021/01/31 12:22:04;;;;;;;14.07;6.70;;;;;;;;;;5094258;28;20297;-71
2021/01/31 12:24:30;;;;;;;8.70;6.43;;;;;;;;;;5093340;28;20283;-72
2021/01/31 12:26:57;;;;;;;11.80;7.00;;;;;;;;;;5094078;28;20199;-71
2021/01/31 12:29:23;;;;;;;15.15;7.22;;;;;;;;;;5093880;28;20605;-71
2021/01/31 12:31:50;;;;;;;10.68;5.75;;;;;;;;;;5093962;28;20207;-71
2021/01/31 12:34:16;;;;;;;11.68;5.72;;;;;;;;;;5094284;28;20628;-72
2021/01/31 12:36:43;;;;;;;16.73;6.60;;;;;;;;;;5094111;28;20196;-72
2021/01/31 12:39:10;;;;;;;12.52;6.65;;;;;;;;;;5093839;28;20566;-71
2021/01/31 12:41:36;;;;;;;11.02;6.93;;;;;;;;;;5093716;28;20204;-72
2021/01/31 12:44:03;;;;;;;14.07;6.05;;;;;;;;;;5094064;28;20240;-71
2021/01/31 12:46:29;;;;;;;15.98;7.70;;;;;;;;;;5093530;28;20214;-71
2021/01/31 12:48:55;;;;;;;14.02;6.03;;;;;;;;;;5094001;28;20210;-70
2021/01/31 12:51:22;;;;;;;13.95;7.45;;;;;;;;;;5093614;28;20666;-72
2021/01/31 12:53:48;;;;;;;10.20;7.75;;;;;;;;;;5093709;28;20217;-71
2021/01/31 12:56:14;;;;;;;12.43;7.57;;;;;;;;;;5093450;28;20201;-72
2021/01/31 12:58:40;;;;;;;13.73;7.57;;;;;;;;;;5094108;28;20180;-72
2021/01/31 13:01:07;;;;;;;14.70;6.35;;;;;;;;;;5093432;28;20273;-70
2021/01/31 13:03:33;;;;;;;11.05;7.40;;;;;;;;;;5093253;28;20631;-72
2021/01/31 13:05:59;;;;;;;10.75;6.28;;;;;;;;;;5093007;28;20287;-72
2021/01/31 13:08:25;;;;;;;13.63;6.55;;;;;;;;;;5093382;28;20647;-72
2021/01/31 13:10:51;;;;;;;11.30;5.80;;;;;;;;;;5093175;28;20603;-73
2021/01/31 13:13:17;;;;;;;12.75;7.30;;;;;;;;;;5092459;28;20191;-73
2021/01/31 13:15:43;;;;;;;10.75;6.30;;;;;;;;;;5092809;28;20632;-72
2021/01/31 13:18:10;;;;;;;14.88;8.50;;;;;;;;;;5092799;28;20234;-71
2021/01/31 13:20:36;;;;;;;13.60;6.57;;;;;;;;;;5092865;28;20549;-72
2021/01/31 13:23:03;;;;;;;13.93;7.32;;;;;;;;;;5092632;28;20191;-72
2021/01/31 13:25:29;;;;;;;16.13;6.97;;;;;;;;;;5092828;28;20243;-71
2021/01/31 13:27:57;;;;;;;14.75;6.90;;;;;;;;;;5092644;28;20204;-71
2021/01/31 13:30:23;;;;;;;10.35;5.82;;;;;;;;;;5093161;28;20558;-71
2021/01/31 13:32:49;;;;;;;12.40;7.60;;;;;;;;;;5093111;28;20231;-71
2021/01/31 13:35:17;;;;;;;20.55;7.72;;;;;;;;;;5094815;28;20287;-71
2021/01/31 13:37:43;;;;;;;13.88;7.38;;;;;;;;;;5097146;28;20648;-72
2021/01/31 13:40:10;;;;;;;17.13;7.85;;;;;;;;;;5096470;28;20222;-71
2021/01/31 13:42:36;;;;;;;14.73;7.75;;;;;;;;;;5096850;28;20210;-73
2021/01/31 13:45:02;;;;;;;11.38;6.80;;;;;;;;;;5096747;28;20595;-72
2021/01/31 13:47:28;;;;;;;16.00;7.88;;;;;;;;;;5097071;28;20685;-72
2021/01/31 13:49:54;;;;;;;13.80;6.65;;;;;;;;;;5096859;28;20176;-73
2021/01/31 13:52:21;;;;;;;14.40;6.47;;;;;;;;;;5096791;28;20661;-71
2021/01/31 13:54:49;;;;;;;13.50;6.38;;;;;;;;;;5097179;28;20284;-72
2021/01/31 13:57:15;;;;;;;15.68;7.45;;;;;;;;;;5097074;28;20282;-71
2021/01/31 13:59:41;;;;;;;14.55;6.75;;;;;;;;;;5096439;28;20224;-71
2021/01/31 14:02:07;;;;;;;14.77;7.37;;;;;;;;;;5096881;28;20231;-70
2021/01/31 14:04:33;;;;;;;15.53;7.10;;;;;;;;;;5097181;28;20942;-71
2021/01/31 14:06:59;;;;;;;11.13;7.43;;;;;;;;;;5097107;28;20473;-71
2021/01/31 14:09:26;;;;;;;12.80;7.38;;;;;;;;;;5096592;28;20906;-70
2021/01/31 14:11:52;;;;;;;15.50;7.20;;;;;;;;;;5096635;28;20214;-69
2021/01/31 14:14:18;;;;;;;14.77;6.70;;;;;;;;;;5096456;28;20195;-71
2021/01/31 14:16:44;;;;;;;13.13;7.17;;;;;;;;;;5096929;28;20830;-72
2021/01/31 14:19:10;;;;;;;18.00;7.95;;;;;;;;;;5096141;28;20477;-71
2021/01/31 14:21:36;;;;;;;18.50;9.20;;;;;;;;;;5096927;28;20664;-71
2021/01/31 14:24:02;;;;;;;12.07;6.43;;;;;;;;;;5096647;28;20564;-71
2021/01/31 14:26:31;;;;;;;11.82;6.25;;;;;;;;;;5096093;28;20328;-71
2021/01/31 14:28:57;;;;;;;14.88;6.95;;;;;;;;;;5096184;28;20224;-71
2021/01/31 14:31:24;;;;;;;11.98;7.47;;;;;;;;;;5096022;28;20231;-69
2021/01/31 14:33:50;;;;;;;11.15;6.40;;;;;;;;;;5096733;28;20204;-69
2021/01/31 14:36:16;;;;;;;14.40;6.87;;;;;;;;;;5096670;28;20293;-71
2021/01/31 14:38:42;;;;;;;16.85;6.97;;;;;;;;;;5096024;28;20495;-70
2021/01/31 14:41:08;;;;;;;12.50;6.50;;;;;;;;;;5096304;28;20560;-69
2021/01/31 14:43:35;;;;;;;13.80;7.00;;;;;;;;;;5095826;28;20495;-70
2021/01/31 14:46:01;;;;;;;10.02;5.57;;;;;;;;;;5095501;28;20251;-70